Aérodrome :
LOGIN :

S'inscrire | Disclaimer

   EN    FR    IT 

 










Légende :    VFR   VFR Marginal   IFR   IFR Intensif   IFR Très Intensif
Visi : 
Plafond : 
>= 8 km
>= 3000ft
5 à 8 km
1000 à 3000 ft
1500m à 5 km
500 à 1000 ft
800 à 1500m
200 à 500 ft
< 800m
< 200 ft
Symboles :   Orages  Brouillard  Fortes neiges  Fortes précipitations  Vent > 20 kt
SIGMETs :   Divers  Orages  Givrage  Turbulence  Onde Orograph.  Cendres Volcan.






- Altitude de l'aérodrome : 364 ft
- Code IATA : FRA


EDDF - Frankfurt Int.

DERNIER METAR :
  • 300850Z 05012KT CAVOK 03/M11 Q1030 NOSIG

METARs EXPIRÉS :
  • 300820Z 06013KT CAVOK 03/M10 Q1030 NOSIG
  • 300750Z 04009KT 360V070 CAVOK 02/M10 Q1030 NOSIG
  • 300720Z 02010KT CAVOK 01/M10 Q1030 NOSIG
  • 300650Z AUTO 03009KT //// R07L/P2000N R07C/P2000N R07R/P2000N R18/P2000N // ///////// 01/M09 Q1030 NOSIG
  • 300620Z 04009KT CAVOK M00/M09 Q1030 NOSIG

TAF TAF EDDF
Valide du 30 à 06h jusqu'au 31 à 12h UTC


300500Z 3006/3112 02010KT CAVOK
BECMG 3018/3020 03005KT
TEMPO 3020/3106 BKN030
PROB30
TEMPO 3021/3024 4500 -SHRASN BKN025TCU
BECMG 3109/3112 04010KT



MET'MAP, la Météo Aéronautique d'un coup d'oeil ! - Copyright ORBIFLY Décembre 2007 - Disclaimer

ORBIFLY MET'MAP TEAM :

Programmation & Développement : Alexandra Zaïnal
Sur une idée originale de : Baudouin d'Aumeries
Assistance à la programmation : Marc-Olivier Méhu
Soutien technique & logistique : Manuel Goepfert

Contact : metmap@orbifly.com




SOURCES & CREDITS :

   NOAA